createdAt,value
2022-10-06T00:00:48.964Z,1.77
2022-10-06T00:03:17.605Z,1.92
2022-10-06T00:05:45.375Z,2.63
2022-10-06T00:08:12.763Z,3.53
2022-10-06T00:10:40.683Z,1.73
2022-10-06T00:13:08.518Z,1.42
2022-10-06T00:15:35.992Z,1.67
2022-10-06T00:18:03.896Z,4.05
2022-10-06T00:20:32.310Z,2.95
2022-10-06T00:22:59.661Z,1.17
2022-10-06T00:25:28.456Z,2.58
2022-10-06T00:27:56.785Z,3.30
2022-10-06T00:30:26.981Z,2.67
2022-10-06T00:32:57.982Z,1.67
2022-10-06T00:35:27.798Z,2.97
2022-10-06T00:37:55.652Z,1.73
2022-10-06T00:40:23.137Z,1.73
2022-10-06T00:48:13.411Z,1.73
2022-10-06T00:50:41.604Z,2.13
2022-10-06T00:53:12.496Z,1.50
2022-10-06T00:55:39.837Z,2.42
2022-10-06T00:58:08.192Z,1.88
2022-10-06T01:00:35.877Z,2.50
2022-10-06T01:03:09.003Z,3.65
2022-10-06T01:05:43.381Z,2.03
2022-10-06T01:08:10.878Z,3.50
2022-10-06T01:10:38.299Z,2.40
2022-10-06T01:13:06.951Z,2.47
2022-10-06T01:15:34.499Z,4.47
2022-10-06T01:18:06.526Z,2.60
2022-10-06T01:20:37.170Z,1.90
2022-10-06T01:23:07.129Z,1.75
2022-10-06T01:25:37.925Z,2.50
2022-10-06T01:28:08.550Z,1.80
2022-10-06T01:30:41.916Z,2.47
2022-10-06T01:33:09.526Z,4.10
2022-10-06T01:35:37.251Z,4.50
2022-10-06T01:38:04.780Z,2.17
2022-10-06T01:40:32.170Z,2.97
2022-10-06T01:43:01.745Z,3.20
2022-10-06T01:45:29.808Z,2.40
2022-10-06T01:47:57.767Z,2.30
2022-10-06T01:50:25.456Z,3.33
2022-10-06T01:52:53.061Z,3.53
2022-10-06T01:55:20.420Z,3.35
2022-10-06T01:57:48.664Z,2.80
2022-10-06T02:00:18.170Z,2.45
2022-10-06T02:02:47.443Z,2.35
2022-10-06T02:05:15.965Z,2.25
2022-10-06T02:07:47.347Z,2.67
2022-10-06T02:10:16.809Z,2.55
2022-10-06T02:12:45.278Z,3.25
2022-10-06T02:15:12.798Z,2.20
2022-10-06T02:17:40.428Z,2.72
2022-10-06T02:20:08.499Z,3.00
2022-10-06T02:22:41.055Z,5.10
2022-10-06T02:25:08.891Z,2.85
2022-10-06T02:27:38.112Z,2.70
2022-10-06T02:30:09.086Z,2.10
2022-10-06T02:32:39.709Z,3.53
2022-10-06T02:35:10.558Z,3.28
2022-10-06T02:37:38.042Z,2.28
2022-10-06T02:40:07.004Z,2.97
2022-10-06T02:42:36.563Z,3.83
2022-10-06T02:45:06.982Z,2.08
2022-10-06T02:47:37.186Z,2.33
2022-10-06T02:50:07.720Z,2.08
2022-10-06T02:52:38.413Z,2.17
2022-10-06T02:55:06.748Z,2.20
2022-10-06T02:57:34.171Z,2.30
2022-10-06T03:00:02.221Z,2.85
2022-10-06T03:02:32.714Z,2.83
2022-10-06T03:05:00.540Z,2.53
2022-10-06T03:07:28.279Z,2.08
2022-10-06T03:09:55.715Z,1.95
2022-10-06T03:12:25.210Z,3.45
2022-10-06T03:14:52.758Z,4.03
2022-10-06T03:17:20.845Z,2.15
2022-10-06T03:19:55.989Z,1.95
2022-10-06T03:22:23.936Z,2.60
2022-10-06T03:24:54.238Z,2.40
2022-10-06T03:27:22.047Z,2.22
2022-10-06T03:29:51.800Z,2.35
2022-10-06T03:32:23.935Z,2.13
2022-10-06T03:34:53.522Z,2.30
2022-10-06T03:37:21.281Z,1.85
2022-10-06T03:39:49.154Z,3.25
2022-10-06T03:42:16.585Z,2.88
2022-10-06T03:44:45.456Z,2.42
2022-10-06T03:47:16.984Z,2.22
2022-10-06T03:49:45.087Z,2.78
2022-10-06T03:52:13.537Z,2.22
2022-10-06T03:54:41.591Z,2.55
2022-10-06T03:57:09.619Z,2.75
2022-10-06T03:59:38.244Z,2.58
2022-10-06T04:02:06.848Z,2.53
2022-10-06T04:04:38.545Z,1.92
2022-10-06T04:07:11.417Z,4.60
2022-10-06T04:09:39.651Z,2.33
2022-10-06T04:12:07.989Z,2.47
2022-10-06T04:14:37.554Z,2.47
2022-10-06T04:17:06.509Z,7.38
2022-10-06T04:19:37.047Z,2.45
2022-10-06T04:22:04.621Z,2.50
2022-10-06T04:24:33.034Z,2.45
2022-10-06T04:27:20.227Z,3.60
2022-10-06T04:29:53.591Z,3.47
2022-10-06T04:32:21.950Z,2.88
2022-10-06T04:34:49.333Z,2.28
2022-10-06T04:37:17.133Z,2.65
2022-10-06T04:39:45.185Z,3.92
2022-10-06T04:42:12.990Z,3.30
2022-10-06T04:44:40.742Z,2.85
2022-10-06T04:47:08.058Z,4.20
2022-10-06T04:49:35.468Z,3.08
2022-10-06T04:52:03.349Z,4.85
2022-10-06T04:54:34.088Z,4.57
2022-10-06T04:57:04.115Z,6.30
2022-10-06T04:59:52.099Z,7.13
2022-10-06T05:02:20.930Z,10.25
2022-10-06T05:04:52.291Z,6.38
2022-10-06T05:07:21.451Z,7.85
2022-10-06T05:09:48.787Z,10.35
2022-10-06T05:12:16.123Z,7.20
2022-10-06T05:14:44.865Z,5.35
2022-10-06T05:17:12.112Z,7.70
2022-10-06T05:19:39.961Z,6.95
2022-10-06T05:22:08.143Z,6.35
2022-10-06T05:24:36.942Z,8.95
2022-10-06T05:27:04.660Z,6.05
2022-10-06T05:29:34.853Z,9.13
2022-10-06T05:32:03.667Z,7.07
2022-10-06T05:34:31.144Z,5.00
2022-10-06T05:36:58.740Z,5.60
2022-10-06T05:39:26.302Z,5.57
2022-10-06T05:41:57.248Z,4.68
2022-10-06T05:44:25.631Z,4.40
2022-10-06T05:46:53.953Z,5.97
2022-10-06T05:49:21.551Z,4.43
2022-10-06T05:51:53.911Z,3.63
2022-10-06T05:54:26.241Z,6.38
2022-10-06T05:56:53.833Z,2.92
2022-10-06T05:59:22.270Z,5.57
2022-10-06T06:01:50.054Z,4.05
2022-10-06T06:04:30.131Z,3.85
2022-10-06T06:06:57.741Z,3.25
2022-10-06T06:09:28.419Z,7.28
2022-10-06T06:12:00.358Z,3.83
2022-10-06T06:14:57.929Z,3.42
2022-10-06T06:17:32.242Z,2.90
2022-10-06T06:20:00.705Z,2.88
2022-10-06T06:22:28.488Z,2.70
2022-10-06T06:24:55.757Z,4.32
2022-10-06T06:27:23.628Z,4.18
2022-10-06T06:29:51.114Z,2.80
2022-10-06T06:32:18.678Z,3.28
2022-10-06T06:34:46.099Z,2.40
2022-10-06T06:37:15.434Z,2.78
2022-10-06T06:39:46.260Z,3.30
2022-10-06T06:42:13.872Z,2.85
2022-10-06T06:44:54.979Z,3.60
2022-10-06T06:47:30.169Z,3.47
2022-10-06T06:50:00.421Z,3.33
2022-10-06T06:52:31.353Z,3.53
2022-10-06T06:54:59.222Z,3.13
2022-10-06T06:57:27.657Z,2.78
2022-10-06T06:59:57.774Z,4.25
2022-10-06T07:02:30.076Z,2.95
2022-10-06T07:04:58.045Z,5.80
2022-10-06T07:07:25.455Z,2.85
2022-10-06T07:09:52.919Z,3.45
2022-10-06T07:12:22.555Z,5.63
2022-10-06T07:15:15.557Z,3.58
2022-10-06T07:18:05.911Z,5.35
2022-10-06T07:20:53.161Z,3.63
2022-10-06T07:23:41.215Z,3.53
2022-10-06T07:26:13.224Z,2.65
2022-10-06T07:28:42.642Z,3.13
2022-10-06T07:31:11.820Z,3.85
2022-10-06T07:33:41.056Z,3.42
2022-10-06T07:36:10.056Z,3.35
2022-10-06T07:38:41.823Z,2.88
2022-10-06T07:41:24.652Z,3.88
2022-10-06T07:43:55.736Z,2.88
2022-10-06T07:46:25.103Z,3.60
2022-10-06T07:49:05.260Z,5.22
2022-10-06T07:51:32.878Z,2.58
2022-10-06T07:54:02.628Z,3.03
2022-10-06T07:56:35.092Z,2.50
2022-10-06T07:59:03.239Z,3.45
2022-10-06T08:01:31.282Z,3.03
2022-10-06T08:03:58.816Z,5.03
2022-10-06T08:06:26.599Z,3.05
2022-10-06T08:08:53.984Z,3.20
2022-10-06T08:11:23.137Z,2.72
2022-10-06T08:13:52.213Z,4.20
2022-10-06T08:16:22.401Z,2.63
2022-10-06T08:18:53.503Z,2.90
2022-10-06T08:23:59.631Z,2.40
2022-10-06T08:26:28.589Z,2.00
2022-10-06T08:29:03.334Z,2.47
2022-10-06T08:31:32.363Z,1.75
2022-10-06T08:33:59.842Z,1.95
2022-10-06T08:36:31.997Z,2.80
2022-10-06T08:39:00.866Z,1.83
2022-10-06T08:49:39.023Z,3.08
2022-10-06T08:55:45.456Z,3.53
2022-10-06T09:03:40.586Z,2.92
2022-10-06T09:06:19.561Z,2.30
2022-10-06T09:08:58.907Z,2.08
2022-10-06T09:16:54.485Z,3.85
2022-10-06T09:19:31.266Z,2.45
2022-10-06T09:22:04.932Z,1.48
2022-10-06T09:24:47.171Z,1.88
2022-10-06T09:27:21.901Z,1.75
2022-10-06T09:29:50.774Z,3.65
2022-10-06T09:32:20.399Z,1.70
2022-10-06T09:34:53.226Z,1.52
2022-10-06T09:37:20.573Z,1.60
2022-10-06T09:39:51.657Z,1.70
2022-10-06T09:47:45.382Z,1.63
2022-10-06T09:50:20.684Z,2.40
2022-10-06T09:53:12.189Z,3.63
2022-10-06T09:58:33.154Z,2.67
2022-10-06T10:01:05.064Z,2.67
2022-10-06T10:04:18.900Z,1.85
2022-10-06T10:06:41.990Z,2.30
2022-10-06T10:09:27.506Z,2.65
2022-10-06T10:14:47.803Z,3.03
2022-10-06T10:17:21.868Z,4.47
2022-10-06T10:19:54.606Z,3.67
2022-10-06T10:22:41.438Z,2.20
2022-10-06T10:28:18.743Z,1.88
2022-10-06T10:31:15.420Z,3.60
2022-10-06T10:36:33.438Z,4.05
2022-10-06T10:39:01.692Z,3.20
2022-10-06T10:41:39.712Z,3.08
2022-10-06T10:46:55.674Z,2.38
2022-10-06T10:49:30.137Z,2.95
2022-10-06T10:52:07.348Z,4.13
2022-10-06T10:57:19.746Z,2.75
2022-10-06T11:02:26.684Z,2.85
2022-10-06T11:05:01.626Z,3.40
2022-10-06T11:07:43.224Z,3.08
2022-10-06T11:10:33.789Z,3.03
2022-10-06T11:24:25.671Z,6.00
2022-10-06T11:35:19.844Z,4.93
2022-10-06T11:37:55.897Z,7.07
2022-10-06T11:45:49.547Z,5.55
2022-10-06T11:48:26.830Z,4.88
2022-10-06T11:50:56.212Z,4.93
2022-10-06T11:53:46.605Z,5.28
2022-10-06T12:04:26.642Z,6.35
2022-10-06T12:06:57.400Z,5.22
2022-10-06T12:18:38.901Z,7.18
2022-10-06T12:21:31.943Z,5.50
2022-10-06T12:29:36.721Z,4.50
2022-10-06T12:34:52.336Z,3.88
2022-10-06T12:37:41.245Z,4.68
2022-10-06T12:40:48.262Z,3.92
2022-10-06T12:48:57.730Z,3.17
2022-10-06T12:51:44.045Z,3.88
2022-10-06T12:54:35.172Z,6.07
2022-10-06T12:57:16.147Z,4.18
2022-10-06T12:59:43.554Z,2.42
2022-10-06T13:02:19.416Z,5.05
2022-10-06T13:05:14.767Z,4.43
2022-10-06T13:08:04.792Z,5.45
2022-10-06T13:10:33.346Z,3.13
2022-10-06T13:13:01.457Z,3.75
2022-10-06T13:21:20.161Z,5.30
2022-10-06T13:23:48.383Z,5.13
2022-10-06T13:29:35.186Z,4.03
2022-10-06T13:32:05.304Z,3.53
2022-10-06T13:34:35.087Z,4.60
2022-10-06T13:37:02.851Z,4.22
2022-10-06T13:39:32.174Z,4.18
2022-10-06T13:47:17.909Z,6.38
2022-10-06T13:52:39.496Z,4.85
2022-10-06T13:55:18.857Z,5.63
2022-10-06T14:00:26.655Z,3.72
2022-10-06T14:16:22.703Z,5.95
2022-10-06T14:19:03.001Z,4.47
2022-10-06T14:27:00.556Z,6.37
2022-10-06T14:29:27.982Z,3.88
2022-10-06T14:31:55.641Z,5.10
2022-10-06T14:34:23.019Z,4.57
2022-10-06T14:36:52.711Z,4.93
2022-10-06T14:39:20.150Z,5.72
2022-10-06T14:41:47.586Z,5.40
2022-10-06T14:44:16.295Z,5.78
2022-10-06T14:46:48.375Z,5.43
2022-10-06T14:49:16.130Z,5.40
2022-10-06T14:51:44.915Z,7.05
2022-10-06T14:54:12.716Z,4.75
2022-10-06T14:56:41.671Z,7.25
2022-10-06T14:59:12.872Z,5.00
2022-10-06T15:01:40.900Z,6.20
2022-10-06T15:04:12.266Z,5.72
2022-10-06T15:07:00.402Z,5.13
2022-10-06T15:09:30.584Z,8.88
2022-10-06T15:11:59.324Z,7.35
2022-10-06T15:14:28.756Z,7.45
2022-10-06T15:16:59.352Z,6.57
2022-10-06T15:19:27.458Z,7.82
2022-10-06T15:21:54.863Z,6.55
2022-10-06T15:24:22.278Z,7.00
2022-10-06T15:27:09.733Z,7.60
2022-10-06T15:29:37.109Z,4.38
2022-10-06T15:32:06.709Z,5.80
2022-10-06T15:34:37.058Z,5.13
2022-10-06T15:37:05.451Z,4.47
2022-10-06T15:39:36.626Z,5.68
2022-10-06T15:42:24.290Z,7.40
2022-10-06T15:44:52.129Z,4.63
2022-10-06T15:47:19.490Z,6.70
2022-10-06T15:49:47.307Z,9.15
2022-10-06T15:52:14.693Z,8.27
2022-10-06T15:54:42.170Z,5.97
2022-10-06T15:57:16.390Z,8.88
2022-10-06T15:59:45.362Z,11.05
2022-10-06T16:02:16.051Z,12.23
2022-10-06T16:07:22.298Z,14.98
2022-10-06T16:09:51.089Z,13.98
2022-10-06T16:12:21.610Z,15.93
2022-10-06T16:14:50.302Z,13.55
2022-10-06T16:17:18.765Z,13.30
2022-10-06T16:19:47.283Z,11.43
2022-10-06T16:22:16.979Z,17.73
2022-10-06T16:24:44.483Z,15.68
2022-10-06T16:27:13.366Z,15.05
2022-10-06T16:29:40.950Z,16.08
2022-10-06T16:32:08.508Z,17.30
2022-10-06T16:34:35.824Z,18.58
2022-10-06T16:37:03.217Z,18.05
2022-10-06T16:39:30.591Z,17.35
2022-10-06T16:41:58.040Z,15.82
2022-10-06T16:44:25.376Z,16.00
2022-10-06T16:46:52.754Z,11.07
2022-10-06T16:49:21.362Z,11.63
2022-10-06T16:51:48.681Z,11.82
2022-10-06T16:54:17.627Z,10.80
2022-10-06T16:56:47.539Z,11.18
2022-10-06T16:59:22.434Z,10.20
2022-10-06T17:01:50.930Z,13.13
2022-10-06T17:04:20.973Z,8.23
2022-10-06T17:06:51.559Z,6.80
2022-10-06T17:09:21.281Z,10.77
2022-10-06T17:11:51.660Z,9.02
2022-10-06T17:14:20.364Z,9.43
2022-10-06T17:16:49.726Z,7.40
2022-10-06T17:19:18.952Z,6.45
2022-10-06T17:21:49.591Z,8.93
2022-10-06T17:24:18.517Z,9.98
2022-10-06T17:26:48.776Z,7.97
2022-10-06T17:29:21.622Z,7.28
2022-10-06T17:31:56.544Z,7.38
2022-10-06T17:34:27.929Z,8.15
2022-10-06T17:37:08.627Z,5.82
2022-10-06T17:39:37.833Z,9.00
2022-10-06T17:42:05.495Z,8.55
2022-10-06T17:44:33.716Z,6.38
2022-10-06T17:47:01.190Z,6.05
2022-10-06T17:49:30.708Z,6.90
2022-10-06T17:52:01.816Z,10.60
2022-10-06T17:54:33.884Z,7.70
2022-10-06T17:57:01.413Z,8.20
2022-10-06T17:59:31.990Z,7.60
2022-10-06T18:02:01.648Z,6.03
2022-10-06T18:04:29.932Z,7.75
2022-10-06T18:06:57.665Z,10.13
2022-10-06T18:09:25.759Z,7.93
2022-10-06T18:11:57.978Z,8.68
2022-10-06T18:14:27.449Z,9.13
2022-10-06T18:16:58.596Z,8.50
2022-10-06T18:19:30.422Z,7.20
2022-10-06T18:22:01.097Z,10.57
2022-10-06T18:24:30.292Z,10.02
2022-10-06T18:27:00.104Z,11.60
2022-10-06T18:29:31.826Z,8.98
2022-10-06T18:37:33.900Z,9.18
2022-10-06T18:40:05.540Z,9.15
2022-10-06T18:42:33.113Z,8.70
2022-10-06T18:45:20.279Z,9.70
2022-10-06T18:48:07.425Z,7.85
2022-10-06T18:50:35.376Z,9.48
2022-10-06T18:53:04.592Z,8.25
2022-10-06T18:55:32.268Z,9.57
2022-10-06T18:57:59.715Z,8.63
2022-10-06T19:00:27.624Z,9.07
2022-10-06T19:02:57.060Z,9.60
2022-10-06T19:05:25.688Z,9.95
2022-10-06T19:07:54.228Z,8.63
2022-10-06T19:10:22.367Z,7.63
2022-10-06T19:12:49.983Z,8.57
2022-10-06T19:15:20.730Z,12.68
2022-10-06T19:17:49.820Z,9.68
2022-10-06T19:20:18.802Z,10.00
2022-10-06T19:22:47.931Z,11.50
2022-10-06T19:25:19.083Z,8.88
2022-10-06T19:27:47.207Z,13.48
2022-10-06T19:30:15.066Z,11.43
2022-10-06T19:32:42.378Z,14.75
2022-10-06T19:35:10.761Z,15.70
2022-10-06T19:37:39.494Z,9.18
2022-10-06T19:40:08.992Z,11.93
2022-10-06T19:42:52.306Z,11.23
2022-10-06T19:45:20.983Z,13.20
2022-10-06T19:47:48.673Z,10.88
2022-10-06T19:50:17.355Z,11.35
2022-10-06T19:52:45.478Z,9.73
2022-10-06T19:55:12.800Z,9.13
2022-10-06T19:57:40.505Z,9.90
2022-10-06T20:00:10.522Z,9.60
2022-10-06T20:02:51.332Z,10.23
2022-10-06T20:05:19.458Z,10.88
2022-10-06T20:07:47.531Z,10.65
2022-10-06T20:10:15.879Z,9.35
2022-10-06T20:12:43.255Z,9.20
2022-10-06T20:15:11.406Z,11.10
2022-10-06T20:17:39.562Z,7.93
2022-10-06T20:20:07.262Z,9.18
2022-10-06T20:22:34.603Z,9.60
2022-10-06T20:25:02.718Z,9.48
2022-10-06T20:27:30.566Z,11.15
2022-10-06T20:29:58.402Z,9.25
2022-10-06T20:32:25.860Z,8.20
2022-10-06T20:34:53.286Z,11.98
2022-10-06T20:37:20.589Z,9.70
2022-10-06T20:40:07.768Z,10.55
2022-10-06T20:42:35.215Z,10.98
2022-10-06T20:45:02.784Z,10.18
2022-10-06T20:47:30.611Z,13.32
2022-10-06T20:49:57.858Z,11.70
2022-10-06T20:52:25.208Z,9.60
2022-10-06T20:54:52.604Z,9.90
2022-10-06T20:57:20.265Z,10.73
2022-10-06T20:59:47.551Z,10.60
2022-10-06T21:02:15.021Z,9.38
2022-10-06T21:04:43.810Z,8.32
2022-10-06T21:07:11.701Z,9.70
2022-10-06T21:09:39.034Z,8.02
2022-10-06T21:12:06.404Z,13.68
2022-10-06T21:14:35.481Z,8.32
2022-10-06T21:17:02.859Z,9.65
2022-10-06T21:19:30.346Z,9.35
2022-10-06T21:21:57.736Z,10.63
2022-10-06T21:24:25.117Z,10.65
2022-10-06T21:26:53.039Z,13.95
2022-10-06T21:29:20.845Z,13.60
2022-10-06T21:31:48.582Z,10.82
2022-10-06T21:34:16.014Z,13.93
2022-10-06T21:36:44.570Z,9.15
2022-10-06T21:39:13.303Z,13.77
2022-10-06T21:41:41.276Z,11.02
2022-10-06T21:46:51.001Z,11.25
2022-10-06T21:49:20.404Z,12.70
2022-10-06T21:51:50.043Z,13.05
2022-10-06T21:54:18.173Z,12.93
2022-10-06T21:56:45.966Z,10.52
2022-10-06T21:59:13.920Z,15.23
2022-10-06T22:01:44.277Z,13.60
2022-10-06T22:04:14.526Z,12.90
2022-10-06T22:06:43.318Z,10.75
2022-10-06T22:09:14.818Z,11.05
2022-10-06T22:11:43.858Z,12.18
2022-10-06T22:14:14.820Z,11.13
2022-10-06T22:16:42.698Z,10.23
2022-10-06T22:19:12.415Z,14.60
2022-10-06T22:21:42.705Z,9.90
2022-10-06T22:24:12.686Z,11.07
2022-10-06T22:26:41.962Z,12.82
2022-10-06T22:29:12.399Z,11.52
2022-10-06T22:31:42.324Z,11.38
2022-10-06T22:34:11.333Z,10.05
2022-10-06T22:36:39.275Z,11.75
2022-10-06T22:39:07.026Z,12.60
2022-10-06T22:41:34.399Z,11.57
2022-10-06T22:44:01.961Z,10.43
2022-10-06T22:46:31.911Z,11.70
2022-10-06T22:48:59.893Z,10.40
2022-10-06T22:51:27.790Z,8.65
2022-10-06T22:53:58.225Z,10.18
2022-10-06T22:56:28.305Z,9.40
2022-10-06T22:58:59.864Z,12.82
2022-10-06T23:03:55.950Z,9.98
2022-10-06T23:06:24.778Z,11.27
2022-10-06T23:08:52.632Z,11.80
2022-10-06T23:11:21.886Z,14.30
2022-10-06T23:13:50.769Z,12.20
2022-10-06T23:16:19.310Z,10.43
2022-10-06T23:18:47.756Z,14.68
2022-10-06T23:21:22.348Z,10.00
2022-10-06T23:23:55.410Z,13.90
2022-10-06T23:26:23.643Z,12.02
2022-10-06T23:28:53.762Z,13.50
2022-10-06T23:31:21.451Z,13.82
2022-10-06T23:33:49.446Z,11.18
2022-10-06T23:36:18.282Z,16.33
2022-10-06T23:38:46.382Z,11.63
2022-10-06T23:41:14.338Z,10.57
2022-10-06T23:43:41.979Z,11.70
2022-10-06T23:46:09.678Z,13.93
2022-10-06T23:48:37.752Z,12.73
2022-10-06T23:51:09.120Z,13.07
2022-10-06T23:53:36.816Z,11.27
2022-10-06T23:56:05.515Z,12.82
2022-10-06T23:58:33.247Z,17.15
